Clearwater, MN (55320)

7:55 AM CDT on October 21, 2014 (GMT -0500)
WOODSEDGE ADDITION | Change Station
CLOSE
Current Station
Personal Weather Station
Location: Clearwater, MN
Elevation: 1014 ft
Nearby Weather Stations

Elev 1014 ft 45.42 °N, 94.12 °W | Updated 5 minutes ago

Clear
Clear
33.0 °F
Feels Like 33 °F
N
0.0
Wind Variable Wind from North
Gusts 0.0 mph

Today
High -- | Low -- °F
--% Chance of Precip.
Yesterday
High -- | Low -- °F
Precip. -- in
7:40 AM 6:20 PM
Waning Crescent, 6% visible
Pressure 30.20 in
Visibility 10.0 miles
Clouds Clear
Windchill 33 °F
Dew Point 32 °F
Humidity 97%
Rainfall 0.00 in
Snow Depth Not available.
UV 0 out of 12
Pollen 1.30 out of 12
Ozone Good
PM2.5 Good
Flu Activity Sporadic
METAR KSTC 211153Z 10003KT 10SM CLR 03/01 A3016 RMK AO2 SLP227 T00330011 10050 20022 52005

More Conditions Fewer Conditions

Pressure 30.20 in
Visibility 10.0 miles
Clouds Clear
Windchill 33 °F
Dew Point 32 °F
Humidity 97%
Rainfall 0.00 in
Snow Depth Not available.
UV 0 out of 12
Pollen 1.30 out of 12
Ozone Good
PM2.5 Good
Flu Activity Sporadic
METAR KSTC 211153Z 10003KT 10SM CLR 03/01 A3016 RMK AO2 SLP227 T00330011 10050 20022 52005

More Conditions Fewer Conditions

10-Day Weather Forecast

Almanac

Astronomy

Oct. 21, 2014 Rise Set
Actual Time 7:40 AM CDT 6:20 PM CDT
Civil Twilight 7:10 AM CDT 6:50 PM CDT
Nautical Twilight 6:35 AM CDT 7:24 PM CDT
Astronomical Twilight 6:01 AM CDT 7:59 PM CDT
Moon 5:19 AM CDT 5:19 PM CDT
Length of Visible Light 11h 40m
Length of Day
10h 40m
Tomorrow will be 3m 1s shorter.
Waning Crescent, 6% of the Moon is Illuminated
Today
Waning Crescent
Oct 23
New
Oct 30
First Quarter
Nov 6
Full
Nov 14
Last Quarter

Today's Extremes

State Highs State Lows

Community

WunderPhotos

Upload Photos

1,763,649 photos uploaded!

Nearby

Air Quality

  Air Quality AQ Index Pollutant
Yesterday Good
PM2.5
Yesterday Good
OZONE
Current Good
PM2.5
Current Good
OZONE
Tuesday Good
PM2.5
Wednesday Good
PM2.5
Thursday Good
PM2.5
Friday Moderate
PM2.5
Saturday Moderate
PM2.5

Snow Depth

Station Depth Elevation
No new snow has been reported.

Earthquake Activity

City Distance Mag. Time & Date
No recent earthquake activity has been reported nearby.
Minimum magnitude displayed is 2.5.

Coastal Water Temperatures

Place Temperature
No Stations Reporting

Nearby Weather Stations